Time;durP1;ratioP1;P1;durP2;ratioP2;P2;SDS_P1;SDS_P2;PMS_P1;PMS_P2;Temp;Humidity;BMP_temperature;BMP_pressure;BME280_temperature;BME280_humidity;BME280_pressure;Samples;Min_cycle;Max_cycle;Signal;HPM_P1;HPM_P2
2023/03/30 00:00:44;;;;;;;8.63;3.55;;;11.80;64.50;;;;;;5054633;28;20032;-63
2023/03/30 00:03:10;;;;;;;4.38;3.13;;;11.80;64.60;;;;;;5055900;28;20076;-63
2023/03/30 00:05:37;;;;;;;8.07;3.72;;;11.80;64.60;;;;;;5051099;28;20150;-62
2023/03/30 00:08:03;;;;;;;5.82;3.53;;;11.80;64.60;;;;;;5055595;28;20033;-64
2023/03/30 00:10:29;;;;;;;5.35;2.97;;;11.80;64.70;;;;;;5061211;28;20127;-63
2023/03/30 00:12:56;;;;;;;5.63;3.05;;;11.80;64.70;;;;;;5058623;28;20063;-63
2023/03/30 00:15:23;;;;;;;8.07;3.00;;;11.70;64.70;;;;;;5060029;28;20116;-63
2023/03/30 00:17:53;;;;;;;7.65;3.45;;;11.70;64.70;;;;;;5060799;28;20060;-64
2023/03/30 00:20:20;;;;;;;6.90;3.30;;;11.70;64.70;;;;;;5060365;28;20025;-63
2023/03/30 00:22:46;;;;;;;8.43;2.90;;;11.70;64.60;;;;;;5059547;28;20043;-63
2023/03/30 00:25:14;;;;;;;6.10;2.95;;;11.70;64.70;;;;;;5060799;28;20025;-62
2023/03/30 00:27:40;;;;;;;8.60;2.95;;;11.70;64.70;;;;;;5060086;28;20029;-62
2023/03/30 00:30:11;;;;;;;5.30;2.80;;;11.60;64.70;;;;;;5060943;28;20027;-62
2023/03/30 00:32:37;;;;;;;5.35;2.95;;;11.60;64.80;;;;;;5057843;28;20037;-62
2023/03/30 00:35:04;;;;;;;5.00;2.75;;;11.60;64.80;;;;;;5059291;28;20056;-64
2023/03/30 00:37:29;;;;;;;5.95;2.80;;;11.60;64.90;;;;;;5055165;28;20029;-62
2023/03/30 00:39:55;;;;;;;5.55;2.72;;;11.60;65.10;;;;;;5059022;28;20017;-62
2023/03/30 00:42:21;;;;;;;11.75;2.95;;;11.60;65.20;;;;;;5062517;28;20028;-63
2023/03/30 00:45:15;;;;;;;6.43;2.92;;;11.60;65.30;;;;;;5060270;28;20032;-63
2023/03/30 00:47:47;;;;;;;9.32;3.55;;;11.60;66.40;;;;;;5056860;28;20057;-63
2023/03/30 00:50:15;;;;;;;9.20;3.72;;;11.60;65.50;;;;;;5057808;28;20048;-63
2023/03/30 00:52:43;;;;;;;6.03;3.88;;;11.60;65.50;;;;;;5059151;28;20021;-62
2023/03/30 00:55:11;;;;;;;7.30;4.00;;;11.60;65.70;;;;;;5059362;28;20040;-63
2023/03/30 00:57:40;;;;;;;7.13;4.13;;;11.60;65.90;;;;;;5059481;28;20032;-63
2023/03/30 01:00:09;;;;;;;8.60;3.85;;;11.50;65.90;;;;;;5055401;28;20021;-63
2023/03/30 01:02:40;;;;;;;9.25;4.05;;;11.50;65.80;;;;;;5062832;28;20021;-63
2023/03/30 01:05:07;;;;;;;8.80;3.92;;;11.60;66.30;;;;;;5060484;28;20021;-62
2023/03/30 01:07:35;;;;;;;5.72;3.75;;;11.60;66.40;;;;;;5057422;28;20033;-63
2023/03/30 01:10:01;;;;;;;12.05;4.18;;;11.60;66.60;;;;;;5056306;28;20027;-62
2023/03/30 01:12:28;;;;;;;10.63;3.83;;;11.60;66.90;;;;;;5065160;28;20029;-62
2023/03/30 01:14:55;;;;;;;15.93;4.18;;;11.60;67.70;;;;;;5057680;28;20040;-62
2023/03/30 01:17:35;;;;;;;7.25;2.97;;;11.70;67.00;;;;;;5058988;28;20036;-62
2023/03/30 01:20:11;;;;;;;11.70;3.95;;;11.70;67.70;;;;;;5057884;28;20057;-63
2023/03/30 01:23:26;;;;;;;9.13;3.25;;;11.70;67.70;;;;;;5058652;28;20031;-61
2023/03/30 01:26:10;;;;;;;9.88;3.38;;;11.80;68.80;;;;;;5057682;28;20030;-61
2023/03/30 01:28:59;;;;;;;8.45;3.30;;;11.80;67.10;;;;;;5060163;28;20029;-61
2023/03/30 01:31:47;;;;;;;6.90;3.30;;;11.90;68.60;;;;;;5053966;28;20029;-62
2023/03/30 01:35:01;;;;;;;11.77;4.43;;;11.90;69.30;;;;;;5064715;28;20049;-62
2023/03/30 01:37:54;;;;;;;12.80;4.57;;;11.90;69.00;;;;;;4993057;28;20026;-63
2023/03/30 01:40:38;;;;;;;10.60;4.32;;;12.00;68.60;;;;;;4984017;28;20027;-62
2023/03/30 01:43:28;;;;;;;11.55;3.97;;;12.00;68.30;;;;;;4996528;28;20050;-63
2023/03/30 01:46:17;;;;;;;9.90;3.88;;;12.00;68.80;;;;;;4998984;28;20042;-62
2023/03/30 01:48:50;;;;;;;18.50;4.20;;;12.00;68.00;;;;;;4994950;28;20042;-62
2023/03/30 01:51:24;;;;;;;24.20;4.05;;;12.10;67.90;;;;;;4982900;28;20033;-62
2023/03/30 01:54:11;;;;;;;13.73;3.15;;;12.10;68.30;;;;;;5001983;28;20670;-61
2023/03/30 01:56:47;;;;;;;15.20;3.95;;;12.10;68.70;;;;;;4991043;28;20037;-64
2023/03/30 01:59:28;;;;;;;9.25;3.30;;;12.10;67.60;;;;;;4995218;28;20027;-62
2023/03/30 02:02:01;;;;;;;12.32;2.95;;;12.20;68.20;;;;;;4992439;28;20042;-62
2023/03/30 02:04:30;;;;;;;12.43;3.17;;;12.20;67.70;;;;;;4996202;28;20041;-62
2023/03/30 02:07:00;;;;;;;10.25;2.58;;;12.20;68.40;;;;;;4995797;28;20093;-62
2023/03/30 02:09:29;;;;;;;10.75;2.80;;;12.30;68.40;;;;;;5051035;28;20033;-62
2023/03/30 02:11:56;;;;;;;11.60;2.92;;;12.30;68.20;;;;;;5052268;28;20051;-62
2023/03/30 02:14:31;;;;;;;13.52;3.10;;;12.40;68.40;;;;;;5054691;28;20039;-61
2023/03/30 02:17:10;;;;;;;4.72;2.25;;;12.40;69.00;;;;;;5053921;28;20029;-62
2023/03/30 02:19:36;;;;;;;9.68;2.47;;;12.40;68.80;;;;;;5055704;28;20037;-63
2023/03/30 02:22:03;;;;;;;9.52;2.30;;;12.50;68.20;;;;;;5058228;28;20060;-63
2023/03/30 02:24:30;;;;;;;11.27;2.75;;;12.50;68.00;;;;;;5057724;28;20035;-61
2023/03/30 02:26:58;;;;;;;9.23;2.60;;;12.50;68.20;;;;;;5055781;28;20032;-63
2023/03/30 02:29:24;;;;;;;9.82;2.55;;;12.60;68.80;;;;;;5058679;28;20028;-62
2023/03/30 02:31:55;;;;;;;10.65;2.60;;;12.60;68.60;;;;;;5056250;28;20025;-61
2023/03/30 02:34:42;;;;;;;15.27;3.42;;;12.60;69.10;;;;;;5056056;28;20568;-63
2023/03/30 02:37:31;;;;;;;9.50;2.90;;;12.60;70.30;;;;;;5061356;28;20108;-61
2023/03/30 02:40:15;;;;;;;8.88;2.60;;;12.70;69.70;;;;;;5056292;28;20028;-62
2023/03/30 02:42:47;;;;;;;10.95;2.75;;;12.70;70.00;;;;;;5061562;28;20040;-62
2023/03/30 02:45:19;;;;;;;12.30;2.75;;;12.70;68.60;;;;;;5057090;28;20025;-62
2023/03/30 02:48:33;;;;;;;7.28;2.95;;;12.70;68.70;;;;;;5058269;28;20031;-63
2023/03/30 02:51:32;;;;;;;15.57;3.30;;;12.70;70.50;;;;;;4990560;28;20050;-62
2023/03/30 02:54:11;;;;;;;7.03;2.53;;;12.70;70.00;;;;;;4990595;28;21535;-61
2023/03/30 02:56:47;;;;;;;8.02;2.60;;;12.70;68.90;;;;;;4994054;28;20034;-61
2023/03/30 02:59:18;;;;;;;12.38;3.20;;;12.70;69.40;;;;;;4978098;28;20572;-61
2023/03/30 03:01:58;;;;;;;9.68;2.85;;;12.70;69.30;;;;;;4994187;28;20034;-62
2023/03/30 03:04:27;;;;;;;9.88;2.88;;;12.80;70.00;;;;;;4994425;28;20529;-62
2023/03/30 03:06:54;;;;;;;10.75;2.78;;;12.80;69.40;;;;;;4994698;28;20041;-61
2023/03/30 03:09:23;;;;;;;11.80;2.85;;;12.80;69.40;;;;;;4991966;28;20046;-62
2023/03/30 03:11:50;;;;;;;14.50;2.92;;;12.70;69.50;;;;;;4994628;28;20038;-62
2023/03/30 03:14:16;;;;;;;11.68;3.13;;;12.80;69.60;;;;;;4991292;28;20228;-62
2023/03/30 03:16:41;;;;;;;9.45;2.65;;;12.80;69.50;;;;;;4991472;28;20027;-61
2023/03/30 03:19:08;;;;;;;13.95;3.40;;;12.80;69.80;;;;;;4995026;28;20158;-60
2023/03/30 03:21:35;;;;;;;11.02;2.90;;;12.80;69.90;;;;;;4990215;28;20030;-61
2023/03/30 03:24:02;;;;;;;8.48;2.90;;;12.80;70.00;;;;;;4994474;28;20023;-62
2023/03/30 03:26:28;;;;;;;14.60;3.00;;;12.80;70.10;;;;;;5029481;28;20053;-62
2023/03/30 03:28:53;;;;;;;8.52;2.97;;;12.80;70.10;;;;;;5058466;28;20040;-61
2023/03/30 03:31:19;;;;;;;10.25;3.10;;;12.80;70.20;;;;;;5058796;28;20043;-62
2023/03/30 03:33:45;;;;;;;11.00;2.63;;;12.80;70.20;;;;;;5058135;28;20039;-61
2023/03/30 03:36:11;;;;;;;8.15;2.60;;;12.80;70.10;;;;;;5056712;28;20132;-61
2023/03/30 03:38:36;;;;;;;7.13;2.28;;;12.80;70.20;;;;;;5056671;28;20025;-62
2023/03/30 03:41:02;;;;;;;9.55;2.88;;;12.80;70.30;;;;;;5059516;28;20076;-62
2023/03/30 03:43:28;;;;;;;13.82;2.95;;;12.80;70.30;;;;;;5058387;28;20055;-61
2023/03/30 03:45:54;;;;;;;12.82;3.00;;;12.80;70.40;;;;;;5056393;28;20032;-63
2023/03/30 03:48:22;;;;;;;13.05;3.17;;;12.90;70.50;;;;;;5060110;28;20033;-62
2023/03/30 03:50:56;;;;;;;14.30;3.47;;;12.90;70.60;;;;;;5067804;28;20052;-62
2023/03/30 03:53:24;;;;;;;13.80;3.03;;;12.90;70.80;;;;;;5058061;28;20393;-61
2023/03/30 03:55:50;;;;;;;9.10;3.20;;;12.90;70.40;;;;;;5062515;28;20018;-61
2023/03/30 03:58:16;;;;;;;9.32;2.92;;;12.80;70.40;;;;;;5061934;28;20032;-61
2023/03/30 04:00:42;;;;;;;14.70;3.38;;;12.90;70.50;;;;;;5062378;28;20029;-62
2023/03/30 04:03:08;;;;;;;20.30;3.67;;;12.90;70.50;;;;;;5061237;28;20025;-62
2023/03/30 04:05:34;;;;;;;13.60;3.47;;;12.90;70.60;;;;;;5060584;28;20139;-62
2023/03/30 04:08:00;;;;;;;13.00;3.63;;;12.90;70.70;;;;;;5052506;28;20056;-62
2023/03/30 04:10:26;;;;;;;11.75;4.03;;;12.90;70.70;;;;;;5059539;28;20059;-61
2023/03/30 04:12:55;;;;;;;14.27;3.63;;;12.90;70.80;;;;;;5058963;28;20028;-61
2023/03/30 04:15:21;;;;;;;12.38;3.20;;;12.90;71.00;;;;;;5061973;28;20040;-60
2023/03/30 04:17:48;;;;;;;13.30;3.50;;;12.90;70.80;;;;;;5058316;28;20040;-61
2023/03/30 04:20:15;;;;;;;13.70;3.67;;;12.90;70.90;;;;;;5058487;28;20017;-63
2023/03/30 04:22:44;;;;;;;13.18;3.63;;;12.90;70.80;;;;;;5062383;28;20021;-60
2023/03/30 04:25:13;;;;;;;11.02;3.13;;;12.90;71.10;;;;;;5062890;28;20029;-61
2023/03/30 04:27:43;;;;;;;23.13;6.03;;;12.90;71.10;;;;;;5063089;28;20096;-65
2023/03/30 04:30:10;;;;;;;26.60;6.85;;;12.90;71.30;;;;;;5058493;28;20033;-62
2023/03/30 04:32:37;;;;;;;23.70;8.48;;;12.90;71.20;;;;;;5059209;28;20020;-62
2023/03/30 04:35:05;;;;;;;29.42;7.68;;;12.90;71.30;;;;;;5061409;28;20047;-61
2023/03/30 04:37:31;;;;;;;14.65;4.93;;;12.90;71.40;;;;;;5061278;28;20028;-62
2023/03/30 04:40:01;;;;;;;16.38;3.28;;;12.90;71.50;;;;;;5055518;28;20067;-61
2023/03/30 04:42:32;;;;;;;16.90;3.30;;;12.90;72.10;;;;;;5054886;28;20025;-62
2023/03/30 04:44:59;;;;;;;19.48;3.40;;;12.90;71.70;;;;;;5052236;28;20025;-63
2023/03/30 04:47:27;;;;;;;15.95;3.38;;;12.90;72.10;;;;;;5059625;28;20033;-61
2023/03/30 04:49:53;;;;;;;17.08;2.90;;;12.90;72.20;;;;;;5058383;28;20025;-62
2023/03/30 04:52:18;;;;;;;12.98;3.35;;;12.90;72.00;;;;;;5054280;28;20036;-61
2023/03/30 04:54:44;;;;;;;11.52;3.30;;;12.90;72.70;;;;;;5058043;28;20093;-62
2023/03/30 04:57:12;;;;;;;15.90;5.03;;;12.90;71.90;;;;;;5057372;28;20029;-61
2023/03/30 04:59:42;;;;;;;15.50;4.38;;;13.00;72.00;;;;;;5058443;28;20032;-61
2023/03/30 05:02:08;;;;;;;16.17;3.58;;;12.90;71.90;;;;;;5053769;28;21148;-62
2023/03/30 05:04:34;;;;;;;14.43;3.25;;;13.00;71.90;;;;;;5065647;28;20077;-62
2023/03/30 05:07:01;;;;;;;12.95;3.95;;;13.00;71.90;;;;;;5061163;28;20021;-62
2023/03/30 05:09:27;;;;;;;16.42;3.22;;;13.00;71.90;;;;;;5058600;28;20021;-61
2023/03/30 05:11:52;;;;;;;16.95;3.00;;;13.00;72.00;;;;;;5057051;28;20076;-61
2023/03/30 05:14:18;;;;;;;21.08;4.07;;;13.00;72.00;;;;;;5059254;28;20067;-62
2023/03/30 05:16:44;;;;;;;21.65;3.45;;;13.00;71.70;;;;;;5057732;28;20040;-63
2023/03/30 05:19:10;;;;;;;13.20;3.33;;;13.00;71.90;;;;;;5056976;28;20045;-62
2023/03/30 05:21:36;;;;;;;11.05;4.13;;;13.00;71.80;;;;;;5058954;28;20029;-62
2023/03/30 05:24:02;;;;;;;17.02;4.65;;;13.00;71.90;;;;;;5057345;28;20064;-62
2023/03/30 05:26:28;;;;;;;17.75;4.35;;;13.00;72.00;;;;;;5058185;28;20025;-60
2023/03/30 05:28:54;;;;;;;15.65;3.92;;;13.00;72.20;;;;;;5058920;28;20029;-61
2023/03/30 05:31:20;;;;;;;17.20;4.05;;;13.00;72.10;;;;;;5063363;28;20017;-61
2023/03/30 05:33:46;;;;;;;15.30;4.57;;;13.00;72.30;;;;;;5056774;28;20029;-61
2023/03/30 05:36:12;;;;;;;13.57;4.60;;;13.00;72.40;;;;;;5058150;28;20507;-61
2023/03/30 05:38:38;;;;;;;14.05;4.00;;;13.00;72.50;;;;;;5061410;28;20044;-61
2023/03/30 05:41:05;;;;;;;12.73;3.38;;;13.00;72.50;;;;;;5058220;28;20033;-63
2023/03/30 05:43:32;;;;;;;13.90;3.90;;;13.00;72.50;;;;;;5062308;28;20052;-62
2023/03/30 05:45:58;;;;;;;18.85;4.47;;;13.10;72.50;;;;;;5062188;28;20032;-61
2023/03/30 05:48:24;;;;;;;9.98;3.38;;;13.10;72.50;;;;;;5061164;28;20353;-61
2023/03/30 05:50:50;;;;;;;14.20;4.25;;;13.10;72.50;;;;;;5058425;28;20033;-61
2023/03/30 05:53:16;;;;;;;11.18;3.38;;;13.10;72.50;;;;;;5062467;28;20111;-61
2023/03/30 05:55:45;;;;;;;14.82;4.22;;;13.10;72.50;;;;;;5059530;28;20493;-62
2023/03/30 05:58:12;;;;;;;16.40;4.00;;;13.10;72.80;;;;;;5059874;28;20088;-61
2023/03/30 06:00:40;;;;;;;11.23;4.38;;;13.10;72.60;;;;;;5062275;28;20028;-61
2023/03/30 06:03:09;;;;;;;17.83;4.70;;;13.20;72.40;;;;;;5064658;28;20052;-64
2023/03/30 06:05:38;;;;;;;16.63;4.43;;;13.10;72.50;;;;;;5057961;28;20060;-64
2023/03/30 06:08:04;;;;;;;15.13;5.10;;;13.20;72.60;;;;;;5056091;28;20025;-64
2023/03/30 06:10:30;;;;;;;19.48;5.80;;;13.20;72.60;;;;;;5054621;28;20029;-63
2023/03/30 06:12:56;;;;;;;20.27;5.20;;;13.20;72.60;;;;;;5056344;28;20144;-63
2023/03/30 06:15:22;;;;;;;16.38;4.97;;;13.20;72.70;;;;;;5057881;28;20052;-64
2023/03/30 06:17:48;;;;;;;20.27;4.55;;;13.20;72.70;;;;;;5059814;28;20095;-64
2023/03/30 06:20:13;;;;;;;18.83;6.68;;;13.20;72.70;;;;;;5054581;28;20061;-64
2023/03/30 06:22:43;;;;;;;18.90;5.03;;;13.30;72.80;;;;;;5050983;28;20099;-64
2023/03/30 06:25:09;;;;;;;14.07;5.30;;;13.30;72.80;;;;;;5055368;28;20426;-64
2023/03/30 06:27:35;;;;;;;18.73;4.75;;;13.30;72.60;;;;;;5063152;28;20055;-64
2023/03/30 06:30:01;;;;;;;18.67;5.00;;;13.40;72.60;;;;;;5061131;28;20033;-64
2023/03/30 06:32:27;;;;;;;22.13;5.88;;;13.40;72.70;;;;;;5057729;28;20088;-64
2023/03/30 06:34:52;;;;;;;24.52;6.78;;;13.40;72.60;;;;;;5058093;28;20033;-64
2023/03/30 06:37:19;;;;;;;20.33;5.55;;;13.50;72.20;;;;;;5061518;28;20473;-64
2023/03/30 06:39:45;;;;;;;17.38;5.97;;;13.40;72.10;;;;;;5057751;28;20044;-64
2023/03/30 06:42:11;;;;;;;25.73;6.20;;;13.40;72.40;;;;;;5057027;28;20044;-63
2023/03/30 06:44:36;;;;;;;16.42;6.18;;;13.40;72.10;;;;;;5058078;28;20207;-65
2023/03/30 06:47:04;;;;;;;16.98;4.72;;;13.40;72.50;;;;;;5055209;28;20087;-65
2023/03/30 06:49:30;;;;;;;18.10;4.65;;;13.40;72.30;;;;;;5057603;28;20480;-64
2023/03/30 06:51:56;;;;;;;14.43;5.03;;;13.40;72.60;;;;;;5057892;28;20025;-64
2023/03/30 06:54:23;;;;;;;17.83;5.70;;;13.40;72.50;;;;;;5055217;28;20033;-65
2023/03/30 06:56:48;;;;;;;19.45;5.13;;;13.50;72.80;;;;;;5059691;28;20029;-66
2023/03/30 06:59:15;;;;;;;18.92;5.55;;;13.40;72.50;;;;;;5064146;28;20117;-65
2023/03/30 07:01:43;;;;;;;18.00;4.88;;;13.40;72.30;;;;;;5062734;28;20027;-65
2023/03/30 07:04:09;;;;;;;19.10;5.22;;;13.40;72.60;;;;;;5056413;28;20096;-63
2023/03/30 07:06:34;;;;;;;28.02;5.72;;;13.40;72.50;;;;;;5053138;28;20021;-64
2023/03/30 07:09:01;;;;;;;17.02;4.82;;;13.40;72.80;;;;;;5056104;28;20043;-65
2023/03/30 07:11:27;;;;;;;15.80;4.82;;;13.50;72.90;;;;;;5057770;28;20020;-63
2023/03/30 07:13:57;;;;;;;19.95;5.45;;;13.50;73.10;;;;;;5061737;28;20507;-64
2023/03/30 07:16:23;;;;;;;22.38;5.85;;;13.40;72.60;;;;;;5056434;28;20040;-64
2023/03/30 07:18:51;;;;;;;15.77;5.93;;;13.50;72.60;;;;;;5056825;28;20575;-64
2023/03/30 07:21:17;;;;;;;13.65;4.18;;;13.40;72.80;;;;;;5058807;28;20028;-64
2023/03/30 07:23:43;;;;;;;15.40;4.30;;;13.40;72.50;;;;;;5059012;28;20025;-64
2023/03/30 07:26:09;;;;;;;13.50;4.53;;;13.50;72.60;;;;;;5067582;28;20076;-63
2023/03/30 07:28:37;;;;;;;13.43;3.53;;;13.40;72.70;;;;;;5062063;28;20029;-63
2023/03/30 07:31:08;;;;;;;14.27;3.25;;;13.40;73.00;;;;;;5057505;28;20025;-63
2023/03/30 07:33:35;;;;;;;15.20;3.28;;;13.40;73.40;;;;;;5059412;28;20029;-63
2023/03/30 07:36:02;;;;;;;17.58;3.60;;;13.50;73.20;;;;;;5058637;28;20017;-63
2023/03/30 07:38:28;;;;;;;12.27;3.28;;;13.50;73.30;;;;;;5062225;28;20084;-65
2023/03/30 07:40:53;;;;;;;17.45;3.80;;;13.50;73.40;;;;;;5059536;28;20128;-64
2023/03/30 07:43:19;;;;;;;11.45;3.60;;;13.60;73.50;;;;;;5062104;28;20049;-64
2023/03/30 07:45:45;;;;;;;14.18;3.67;;;13.60;73.50;;;;;;5063253;28;20036;-65
2023/03/30 07:48:11;;;;;;;23.05;4.53;;;13.70;73.60;;;;;;5062540;28;20104;-64
2023/03/30 07:50:36;;;;;;;16.05;4.28;;;13.70;73.70;;;;;;5062000;28;20021;-64
2023/03/30 07:53:02;;;;;;;15.15;3.67;;;13.80;73.90;;;;;;5065138;28;20033;-65
2023/03/30 07:55:28;;;;;;;14.25;3.90;;;13.90;74.10;;;;;;5062428;28;20033;-64
2023/03/30 07:57:56;;;;;;;19.35;5.13;;;14.00;74.10;;;;;;5059655;28;20048;-63
2023/03/30 08:00:22;;;;;;;17.05;4.32;;;14.10;74.00;;;;;;5064899;28;20037;-63
2023/03/30 08:02:49;;;;;;;18.25;4.57;;;14.20;74.00;;;;;;5062738;28;20045;-63
2023/03/30 08:05:16;;;;;;;18.13;4.28;;;14.30;74.10;;;;;;5063889;28;20044;-63
2023/03/30 08:07:43;;;;;;;19.67;3.97;;;14.40;73.80;;;;;;5062742;28;20029;-64
2023/03/30 08:10:10;;;;;;;14.05;3.72;;;14.60;73.60;;;;;;5063684;28;20025;-64
2023/03/30 08:12:36;;;;;;;13.18;4.07;;;14.70;73.30;;;;;;5065445;28;20045;-63
2023/03/30 08:15:03;;;;;;;16.30;4.05;;;14.80;72.90;;;;;;5065180;28;20056;-64
2023/03/30 08:17:30;;;;;;;16.45;3.85;;;14.90;72.80;;;;;;5063965;28;20033;-63
2023/03/30 08:19:56;;;;;;;14.40;3.60;;;15.00;72.90;;;;;;5061559;28;20040;-64
2023/03/30 08:22:22;;;;;;;12.95;4.13;;;15.10;72.60;;;;;;5060194;28;20033;-64
2023/03/30 08:24:47;;;;;;;15.15;4.20;;;15.10;72.50;;;;;;5062945;28;20021;-63
2023/03/30 08:27:13;;;;;;;11.88;3.70;;;15.20;72.40;;;;;;5059479;28;20033;-64
2023/03/30 08:29:40;;;;;;;14.70;3.70;;;15.30;72.30;;;;;;5061344;28;20025;-64
2023/03/30 08:32:06;;;;;;;16.17;3.78;;;15.40;72.00;;;;;;5060230;28;20029;-64
2023/03/30 08:34:32;;;;;;;17.67;3.67;;;15.50;71.70;;;;;;5059998;28;20218;-65
2023/03/30 08:36:58;;;;;;;13.38;3.60;;;15.50;71.40;;;;;;5060854;28;20067;-64
2023/03/30 08:39:24;;;;;;;12.95;3.92;;;15.60;71.20;;;;;;4965964;28;20013;-65
2023/03/30 08:42:11;;;;;;;11.57;3.72;;;15.60;71.00;;;;;;5059990;28;20079;-65
2023/03/30 08:44:45;;;;;;;18.77;4.35;;;15.60;71.10;;;;;;5056819;28;20571;-65
2023/03/30 08:47:19;;;;;;;12.57;3.53;;;15.70;70.80;;;;;;5056985;28;20029;-65
2023/03/30 08:50:08;;;;;;;10.57;2.80;;;15.70;70.70;;;;;;5060211;28;20035;-65
2023/03/30 08:52:35;;;;;;;15.10;3.60;;;15.80;71.00;;;;;;5054345;28;20044;-64
2023/03/30 08:55:03;;;;;;;12.38;2.85;;;15.80;70.70;;;;;;5060160;28;20043;-65
2023/03/30 08:57:31;;;;;;;12.45;3.50;;;15.90;70.60;;;;;;5057711;28;20033;-64
2023/03/30 09:00:26;;;;;;;13.23;3.38;;;15.90;70.70;;;;;;5062301;28;20029;-64
2023/03/30 09:02:59;;;;;;;14.73;2.78;;;16.00;71.60;;;;;;5051203;28;20040;-64
2023/03/30 09:05:35;;;;;;;16.02;3.20;;;16.10;70.50;;;;;;5060873;28;20021;-64
2023/03/30 09:08:19;;;;;;;15.55;2.97;;;16.10;70.20;;;;;;5059461;28;20029;-64
2023/03/30 09:11:14;;;;;;;14.13;3.20;;;16.20;70.10;;;;;;5068654;28;20039;-64
2023/03/30 09:13:42;;;;;;;;;;;16.20;70.00;;;;;;5061658;28;20045;-64
2023/03/30 09:16:15;;;;;;;9.98;3.03;;;16.30;69.70;;;;;;5059980;28;19908;-65
2023/03/30 09:18:43;;;;;;;13.55;3.00;;;16.20;68.90;;;;;;5056293;28;20049;-65
2023/03/30 09:21:11;;;;;;;20.10;4.63;;;16.20;68.80;;;;;;5054203;28;20060;-64
2023/03/30 09:23:38;;;;;;;14.52;2.80;;;16.10;68.80;;;;;;5056904;28;20382;-65
2023/03/30 09:26:34;;;;;;;10.85;3.33;;;16.10;68.90;;;;;;5056555;28;20025;-63
2023/03/30 09:29:12;;;;;;;11.57;2.58;;;16.10;69.30;;;;;;5058043;28;20035;-65
2023/03/30 09:31:53;;;;;;;6.75;2.30;;;16.10;69.60;;;;;;5058935;28;20021;-64
2023/03/30 09:34:38;;;;;;;5.40;1.90;;;16.10;69.30;;;;;;5058862;28;20467;-65
2023/03/30 09:37:21;;;;;;;5.63;2.28;;;16.20;69.00;;;;;;5055992;28;20021;-64
2023/03/30 09:39:51;;;;;;;4.70;1.98;;;16.20;68.80;;;;;;5058114;28;20035;-65
2023/03/30 09:43:10;;;;;;;5.57;1.85;;;16.20;68.50;;;;;;5055633;28;20021;-64
2023/03/30 09:45:38;;;;;;;18.38;10.35;;;16.20;68.60;;;;;;4973959;28;20147;-65
2023/03/30 09:48:07;;;;;;;6.50;2.78;;;16.20;68.60;;;;;;4976995;28;20142;-66
2023/03/30 09:50:39;;;;;;;5.47;2.30;;;16.20;68.30;;;;;;4985589;28;20571;-65
2023/03/30 09:53:17;;;;;;;3.13;1.50;;;16.20;68.10;;;;;;4972894;28;20106;-65
2023/03/30 09:55:58;;;;;;;119.95;67.22;;;16.20;67.70;;;;;;4984247;28;20043;-65
2023/03/30 09:58:29;;;;;;;23.08;13.48;;;16.10;67.80;;;;;;4974606;28;20653;-65
2023/03/30 10:01:07;;;;;;;14.25;6.63;;;16.10;67.50;;;;;;4980326;28;20091;-65
2023/03/30 10:03:35;;;;;;;9.30;3.45;;;16.00;67.50;;;;;;4978543;28;20094;-66
2023/03/30 10:06:01;;;;;;;3.00;1.60;;;16.00;67.30;;;;;;4985185;28;20102;-65
2023/03/30 10:08:27;;;;;;;6.55;1.27;;;15.90;67.20;;;;;;4971928;28;20027;-65
2023/03/30 10:10:56;;;;;;;2.22;1.10;;;15.90;66.90;;;;;;4975881;28;20031;-66
2023/03/30 10:13:32;;;;;;;3.90;1.35;;;15.80;66.90;;;;;;4971224;28;20050;-64
2023/03/30 10:16:07;;;;;;;6.47;1.52;;;15.80;66.90;;;;;;4981865;28;20022;-64
2023/03/30 10:18:39;;;;;;;4.35;1.20;;;15.70;67.00;;;;;;4973678;28;20070;-66
2023/03/30 10:21:16;;;;;;;5.90;1.33;;;15.70;66.90;;;;;;5061539;28;20050;-64
2023/03/30 10:23:45;;;;;;;5.35;1.95;;;15.60;66.90;;;;;;5055518;28;20020;-65
2023/03/30 10:26:18;;;;;;;4.82;1.42;;;15.60;67.30;;;;;;5056936;28;20044;-63
2023/03/30 10:28:59;;;;;;;5.65;1.55;;;15.50;67.30;;;;;;5057525;28;20033;-65
2023/03/30 10:31:26;;;;;;;3.90;1.88;;;15.50;67.60;;;;;;5051988;28;21090;-64
2023/03/30 10:33:56;;;;;;;5.28;1.90;;;15.40;67.30;;;;;;5057453;28;20037;-64
2023/03/30 10:36:29;;;;;;;7.60;1.65;;;15.40;67.70;;;;;;5056899;28;20500;-65
2023/03/30 10:39:25;;;;;;;2.70;1.48;;;15.40;67.90;;;;;;5055186;28;20017;-64
2023/03/30 10:41:53;;;;;;;5.68;1.88;;;15.30;67.80;;;;;;5038424;28;20048;-64
2023/03/30 10:44:26;;;;;;;9.82;2.08;;;15.30;67.90;;;;;;5057043;28;20040;-64
2023/03/30 10:47:02;;;;;;;3.43;1.80;;;15.20;67.70;;;;;;5057913;28;20464;-64
2023/03/30 10:49:47;;;;;;;3.13;1.63;;;15.20;67.60;;;;;;5054399;28;20100;-64
2023/03/30 10:52:41;;;;;;;2.70;1.83;;;15.20;67.70;;;;;;5052937;28;20035;-65
2023/03/30 10:55:38;;;;;;;3.80;1.67;;;15.20;68.30;;;;;;4996614;28;20043;-64
2023/03/30 10:58:22;;;;;;;3.45;1.90;;;15.20;69.30;;;;;;4995651;28;20201;-64
2023/03/30 11:00:59;;;;;;;6.72;2.75;;;15.30;69.10;;;;;;5001786;28;20052;-64
2023/03/30 11:03:28;;;;;;;4.25;2.08;;;15.40;69.40;;;;;;4999663;28;20121;-65
2023/03/30 11:05:59;;;;;;;4.13;2.00;;;15.50;69.40;;;;;;5002160;28;20069;-64
2023/03/30 11:08:46;;;;;;;2.85;1.73;;;15.60;69.10;;;;;;5007290;28;20045;-65
2023/03/30 11:11:24;;;;;;;5.45;2.63;;;15.70;68.70;;;;;;5009807;28;20453;-66
2023/03/30 11:14:00;;;;;;;7.03;2.63;;;15.70;68.10;;;;;;4996852;28;20050;-64
2023/03/30 11:16:35;;;;;;;8.68;2.38;;;15.80;67.80;;;;;;5007260;28;20022;-65
2023/03/30 11:19:33;;;;;;;3.88;2.25;;;15.80;68.20;;;;;;5006869;28;20049;-65
2023/03/30 11:22:20;;;;;;;3.75;1.50;;;15.80;67.50;;;;;;4987757;28;20069;-64
2023/03/30 11:24:49;;;;;;;6.22;2.05;;;15.80;67.30;;;;;;5002355;28;20022;-64
2023/03/30 11:27:21;;;;;;;4.97;1.85;;;15.80;67.50;;;;;;5004810;28;20030;-65
2023/03/30 11:30:13;;;;;;;7.25;1.95;;;15.80;67.50;;;;;;4998731;28;20034;-65
2023/03/30 11:33:24;;;;;;;3.67;1.70;;;15.80;67.70;;;;;;5039777;28;20067;-64
2023/03/30 11:35:56;;;;;;;5.28;1.90;;;15.80;67.70;;;;;;5056821;28;20025;-65
2023/03/30 11:38:46;;;;;;;6.20;2.13;;;15.70;67.40;;;;;;5057023;28;20063;-65
2023/03/30 11:41:19;;;;;;;6.22;2.00;;;15.70;67.50;;;;;;5049893;28;20071;-64
2023/03/30 11:43:44;;;;;;;6.90;1.88;;;15.70;67.80;;;;;;5056348;28;20025;-64
2023/03/30 11:46:16;;;;;;;10.98;2.75;;;15.80;67.90;;;;;;5051688;28;20093;-65
2023/03/30 11:48:57;;;;;;;4.68;2.35;;;15.80;67.80;;;;;;5056007;28;20025;-64
2023/03/30 11:51:34;;;;;;;4.88;2.28;;;15.80;67.60;;;;;;5055808;28;20032;-64
2023/03/30 11:54:30;;;;;;;5.95;2.10;;;15.80;67.30;;;;;;5053396;28;20338;-64
2023/03/30 11:57:09;;;;;;;4.13;1.75;;;15.80;67.20;;;;;;5054562;28;20089;-65
2023/03/30 11:59:43;;;;;;;4.00;1.80;;;15.80;66.90;;;;;;5055424;28;20028;-64
2023/03/30 12:02:33;;;;;;;4.55;2.22;;;15.70;67.00;;;;;;5053878;28;20032;-65
2023/03/30 12:05:02;;;;;;;4.10;1.75;;;15.70;67.80;;;;;;5056603;28;20056;-64
2023/03/30 12:07:28;;;;;;;5.53;2.00;;;15.60;67.00;;;;;;5057823;28;20029;-65
2023/03/30 12:09:57;;;;;;;6.10;2.20;;;15.60;67.10;;;;;;5056512;28;20032;-64
2023/03/30 12:12:35;;;;;;;6.88;2.38;;;15.60;67.30;;;;;;5067052;28;20025;-64
2023/03/30 12:15:04;;;;;;;7.32;2.33;;;15.50;67.60;;;;;;5062025;28;20459;-65
2023/03/30 12:17:53;;;;;;;4.93;2.30;;;15.50;67.60;;;;;;5059890;28;20029;-65
2023/03/30 12:20:57;;;;;;;6.13;2.00;;;15.50;67.80;;;;;;5058986;28;20090;-64
2023/03/30 12:23:33;;;;;;;8.27;2.03;;;15.50;68.40;;;;;;5061762;28;20021;-65
2023/03/30 12:26:08;;;;;;;5.32;2.13;;;15.50;68.70;;;;;;5059048;28;20040;-65
2023/03/30 12:28:46;;;;;;;5.00;1.90;;;15.60;69.10;;;;;;5059151;28;20025;-66
2023/03/30 12:31:13;;;;;;;4.30;1.88;;;15.70;69.20;;;;;;5058428;28;20059;-65
2023/03/30 12:33:51;;;;;;;4.07;1.73;;;15.80;69.00;;;;;;5056382;28;20056;-65
2023/03/30 12:36:37;;;;;;;5.50;2.08;;;15.90;68.80;;;;;;5058756;28;20045;-66
2023/03/30 12:39:09;;;;;;;5.60;1.90;;;16.00;68.20;;;;;;5061574;28;20017;-65
2023/03/30 12:41:42;;;;;;;5.88;1.83;;;16.10;68.00;;;;;;5058590;28;20063;-65
2023/03/30 12:44:22;;;;;;;4.80;1.60;;;16.10;68.20;;;;;;5063601;28;20037;-64
2023/03/30 12:46:51;;;;;;;3.47;1.90;;;16.20;68.40;;;;;;5059771;28;20029;-65
2023/03/30 12:49:20;;;;;;;6.40;2.13;;;16.20;68.30;;;;;;5057654;28;20070;-64
2023/03/30 12:52:27;;;;;;;5.40;1.75;;;16.30;68.40;;;;;;5059758;28;20021;-65
2023/03/30 12:55:11;;;;;;;5.05;2.00;;;16.40;68.40;;;;;;5061088;28;20065;-64
2023/03/30 12:57:58;;;;;;;5.63;2.17;;;16.50;68.10;;;;;;5062750;28;20106;-65
2023/03/30 13:00:46;;;;;;;3.05;1.70;;;16.50;67.60;;;;;;5067873;28;20047;-65
2023/03/30 13:03:35;;;;;;;4.65;1.85;;;16.60;67.70;;;;;;5058358;28;20090;-65
2023/03/30 13:06:02;;;;;;;4.32;1.60;;;16.60;67.60;;;;;;5067190;28;20052;-64